Geraldine, MT (59446)

3:49 AM MDT on September 02, 2014 (GMT -0600)
Hawarden | Change Station
CLOSE
Current Station
Personal Weather Station
Location: Geraldine, MT
Elevation: 3087 ft
Nearby Weather Stations

Elev 3087 ft 47.61 °N, 110.09 °W | Updated 3 seconds ago

Partly Cloudy
Partly Cloudy
51.2 °F
Feels Like 51.2 °F
N
6.3
Wind Variable Wind from WSW
Gusts 7.0 mph

Today
High -- | Low -- °F
--% Chance of Precip.
Yesterday
High -- | Low -- °F
Precip. -- in
6:41 AM 7:59 PM
Waxing Crescent, 50% visible
Pressure 29.91 in
Visibility 10.0 miles
Clouds Clear
Dew Point 39 °F
Humidity 62%
Rainfall 0.00 in
Snow Depth Not available.
UV 0 out of 12
Pollen 7.70 out of 12
Air Quality Not available.
Flu Activity Not available.
METAR KGFA 020856Z AUTO 23006KT 10SM CLR 11/03 A2992 RMK AO2 SLP129 T01130034 55003

More Conditions Fewer Conditions

Pressure 29.91 in
Visibility 10.0 miles
Clouds Clear
Dew Point 39 °F
Humidity 62%
Rainfall 0.00 in
Snow Depth Not available.
UV 0 out of 12
Pollen 7.70 out of 12
Air Quality Not available.
Flu Activity Not available.
METAR KGFA 020856Z AUTO 23006KT 10SM CLR 11/03 A2992 RMK AO2 SLP129 T01130034 55003

More Conditions Fewer Conditions

10-Day Weather Forecast

Almanac

Astronomy

Sep. 02, 2014 Rise Set
Actual Time 6:41 AM MDT 7:59 PM MDT
Civil Twilight 6:09 AM MDT 8:31 PM MDT
Nautical Twilight 5:30 AM MDT 9:09 PM MDT
Astronomical Twilight 4:49 AM MDT 9:50 PM MDT
Moon 2:58 PM MDT No Moon Set
Length of Visible Light 14h 21m
Length of Day
13h 18m
Tomorrow will be 3m 20s shorter.
Waxing Crescent, 50% of the Moon is Illuminated
Today
Waxing Crescent
Sep 2
First Quarter
Sep 8
Full
Sep 15
Last Quarter
Sep 24
New

Today's Extremes

State Highs State Lows

Community

WunderPhotos

Upload Photos

1,749,587 photos uploaded!

WunderBlogs® & News

Nearby

Snow Depth

Station Depth Elevation
Rocky Boy 0 in 4700 ft
Stringer Creek 0 in 6550 ft
Onion Park 0 in 7410 ft
Spur Park 0 in 8100 ft
Daisy Peak 0 in 7600 ft

Earthquake Activity

City Distance Mag. Time & Date
No recent earthquake activity has been reported nearby.
Minimum magnitude displayed is 2.5.

Coastal Water Temperatures

Place Temperature
No Stations Reporting

Nearby Weather Stations